• Join FlightAware (Why Join?)
  • Login
  • US Flag 
04:02AM EDT


 

Airport Tracker/Info


-or-


 

Live Flight TrackerFlight Track Log ✈ N507PD ✈ 23-Apr-2013 ✈ KCPS - KMOB

Flight Track Log - Related Links

Times and Time Zones

All times are in EDT time to prevent confusion due to time zone crossing. See the N507PD flight status page for this flight to view local times or setup timezone preferences in your user account.

Time Position Orientation Groundspeed Altitude Reporting Facility
EDT Latitude Longitude Course Direction KTS MPH feet Rate Location/Type
08:33AM 38.5356 -90.0658 201° Southwest 197 227 1,900  Level FAA TRACON SMA TRACON (SMA)
08:33AM 38.5197 -90.0736 201° Southwest 219 252 2,500 1,020 Climbing FAA TRACON SMA TRACON (SMA)
08:33AM 38.5081 -90.0936 233° Southwest 227 261 2,600 720 Climbing FAA TRACON SMA TRACON (SMA)
08:34AM 38.4931 -90.1219 236° Southwest 241 277 3,000 1,500 Climbing FAA TRACON SMA TRACON (SMA)
08:34AM 38.4778 -90.1397 222° Southwest 239 275 3,600 1,920 Climbing FAA TRACON SMA TRACON (SMA)
08:34AM 38.4636 -90.1556 221° Southwest 234 269 4,300 2,100 Climbing FAA TRACON SMA TRACON (SMA)
08:35AM 38.4475 -90.1753 224° Southwest 217 250 5,000 1,920 Climbing FAA TRACON SMA TRACON (SMA)
08:35AM 38.4344 -90.1928 226° Southwest 217 250 5,600 1,920 Climbing FAA TRACON SMA TRACON (SMA)
08:35AM 38.4203 -90.2117 226° Southwest 225 259 6,300 2,400 Climbing FAA TRACON SMA TRACON (SMA)
08:36AM 38.4011 -90.2350 224° Southwest 243 280 7,200 2,400 Climbing FAA TRACON SMA TRACON (SMA)
08:36AM 38.3847 -90.2547 223° Southwest 259 298 7,900 2,460 Climbing FAA TRACON SMA TRACON (SMA)
08:36AM 38.3639 -90.2814 225° Southwest 276 318 8,900 2,700 Climbing FAA TRACON SMA TRACON (SMA)
08:37AM 38.3464 -90.3031 224° Southwest 283 326 9,700 2,460 Climbing FAA TRACON SMA TRACON (SMA)
08:37AM 38.3256 -90.3211 214° Southwest 292 336 10,500 2,520 Climbing FAA TRACON SMA TRACON (SMA)
08:37AM 38.3011 -90.3217 181° South 293 337 11,400 2,880 Climbing FAA TRACON SMA TRACON (SMA)
08:38AM 38.2703 -90.3183 175° South 290 334 12,500 2,820 Climbing FAA TRACON SMA TRACON (SMA)
08:38AM 38.2458 -90.3114 167° South 292 336 13,300 2,460 Climbing FAA TRACON SMA TRACON (SMA)
08:38AM 38.2217 -90.3028 164° South 292 336 14,100 2,820 Climbing FAA TRACON SMA TRACON (SMA)
08:39AM 38.1917 -90.2972 172° South 287 330 15,200 2,760 Climbing FAA TRACON SMA TRACON (SMA)
08:39AM 38.1681 -90.2908 168° South 284 327 16,000 2,700 Climbing FAA TRACON SMA TRACON (SMA)
08:39AM 38.1386 -90.2800 164° South 283 326 17,000 2,880 Climbing FAA TRACON SMA TRACON (SMA)
08:40AM 38.1153 -90.2739 168° South 281 323 17,900 2,520 Climbing FAA TRACON SMA TRACON (SMA)
08:40AM 38.0922 -90.2703 173° South 275 316 18,700 2,460 Climbing FAA TRACON SMA TRACON (SMA)
08:40AM 38.0636 -90.2617 167° South 272 313 19,600 2,520 Climbing FAA TRACON SMA TRACON (SMA)
08:41AM 38.0406 -90.2536 165° South 275 316 20,400 2,100 Climbing FAA TRACON SMA TRACON (SMA)
08:41AM 38.0178 -90.2464 166° South 275 316 21,000 1,500 Climbing FAA TRACON SMA TRACON (SMA)
08:41AM 37.9942 -90.2406 169° South 280 322 21,400 1,440 Climbing FAA TRACON SMA TRACON (SMA)
08:42AM 37.9633 -90.2347 172° South 289 333 22,000 1,560 Climbing FAA TRACON SMA TRACON (SMA)
08:42AM 37.9386 -90.2269 166° South 297 342 22,500 1,620 Climbing FAA TRACON SMA TRACON (SMA)
08:42AM 37.9061 -90.2172 167° South 307 353 23,100 1,680 Climbing FAA TRACON SMA TRACON (SMA)
08:43AM 37.8797 -90.2114 170° South 312 359 23,600 1,380 Climbing FAA TRACON SMA TRACON (SMA)
08:43AM 37.8531 -90.2022 165° South 320 368 24,000 1,320 Climbing FAA TRACON SMA TRACON (SMA)
08:43AM 37.8261 -90.1944 167° South 323 372 24,500 1,560 Climbing FAA TRACON SMA TRACON (SMA)
08:44AM 37.7914 -90.1853 168° South 329 379 25,100 1,620 Climbing FAA TRACON SMA TRACON (SMA)
08:44AM 37.7636 -90.1808 173° South 330 380 25,600 1,140 Climbing FAA TRACON SMA TRACON (SMA)
08:44AM 37.7561 -90.2339 260° West 325 374 25,900 1,260 Climbing Kansas City Center
08:45AM 37.6636 -90.2092 168° South 336 387 27,400 1,680 Climbing Kansas City Center
08:47AM 37.5514 -90.1792 168° South 342 394 29,300 1,620 Climbing Kansas City Center
08:48AM 37.4569 -90.1542 168° South 346 398 30,800 1,440 Climbing Kansas City Center
08:48AM 37.3650 -90.1325 169° South 360 414 32,200 1,140 Climbing Memphis Center
08:49AM 37.2692 -90.1067 168° South 355 409 33,000 600 Climbing Memphis Center
08:50AM 37.1628 -90.0783 168° South 361 415 33,500 480 Climbing Memphis Center
08:51AM 37.0544 -90.0475 167° South 385 443 34,000 240 Climbing Memphis Center
08:52AM 36.9397 -90.0169 168° South 403 464 34,000 120 Level Memphis Center
08:53AM 36.8189 -89.9864 169° South 429 494 34,300 480 Climbing Memphis Center
08:54AM 36.6958 -89.9558 169° South 442 509 35,000 300 Climbing Memphis Center
08:55AM 36.5769 -89.9228 167° South 447 514 35,000  Level Memphis Center
08:56AM 36.4558 -89.8875 167° South 452 520 35,000  Level Memphis Center
08:57AM 36.3328 -89.8494 166° South 452 520 35,000  Level Memphis Center
08:58AM 36.2075 -89.8117 166° South 452 520 35,000 180 Level Memphis Center
08:59AM 36.0842 -89.7739 166° South 452 520 35,400 600 Climbing Memphis Center
09:00AM 35.9756 -89.7389 165° South 452 520 36,200 840 Climbing Memphis Center
09:01AM 35.8586 -89.7039 166° South 452 520 37,100 840 Climbing Memphis Center
09:02AM 35.7397 -89.6689 167° South 452 520 37,900 900 Climbing Memphis Center
09:03AM 35.6183 -89.6267 164° South 423 487 38,900 540 Climbing Memphis Center
09:04AM 35.5119 -89.5944 166° South 428 493 39,000  Climbing Memphis Center
09:05AM 35.3928 -89.5597 167° South 436 502 39,000  Level Memphis Center
09:06AM 35.2736 -89.5253 167° South 436 502 39,000  Level Memphis Center
09:07AM 35.1586 -89.4883 165° South 431 496 39,000  Level Memphis Center
09:08AM 35.0417 -89.4517 166° South 431 496 39,000  Level Memphis Center
09:09AM 34.9161 -89.4150 167° South 431 496 39,000  Level Memphis Center
09:10AM 34.7989 -89.3833 167° South 431 496 39,000  Level Memphis Center
09:11AM 34.6819 -89.3494 167° South 431 496 39,000  Level Memphis Center
09:12AM 34.5669 -89.3181 167° South 431 496 39,000  Level Memphis Center
09:13AM 34.4519 -89.2842 166° South 431 496 39,000  Level Memphis Center
09:14AM 34.3325 -89.2506 167° South 431 496 39,000  Level Memphis Center
09:15AM 34.2281 -89.2217 167° South 431 496 39,000  Level Memphis Center
09:16AM 34.1128 -89.1856 165° South 431 496 39,000  Level Memphis Center
09:17AM 33.9978 -89.1544 167° South 431 496 39,000  Level Memphis Center
09:18AM 33.8806 -89.1211 167° South 431 496 39,000  Level Memphis Center
09:19AM 33.7697 -89.0903 167° South 426 490 39,000  Level Memphis Center
09:20AM 33.6567 -89.0569 166° South 419 482 39,000  Level Memphis Center
09:21AM 33.5436 -89.0264 167° South 414 476 39,000  Level Memphis Center
09:22AM 33.4283 -88.9931 166° South 414 476 39,000  Level Memphis Center
09:23AM 33.3133 -88.9628 168° South 414 476 39,000  Level Memphis Center
09:24AM 33.1981 -88.9297 167° South 414 476 39,000  Level Memphis Center
09:25AM 33.0828 -88.8969 167° South 419 482 39,000  Level Memphis Center
09:26AM 32.9656 -88.8642 167° South 419 482 39,000  Level Memphis Center
09:27AM 32.8525 -88.8289 165° South 419 482 39,000  Level Memphis Center
09:28AM 32.7331 -88.7989 168° South 424 488 39,000  Level Memphis Center
09:29AM 32.6178 -88.7664 167° South 429 494 39,000 -300 Level Memphis Center
09:30AM 32.5006 -88.7342 167° South 434 499 38,500 -1,080 Descending Memphis Center
09:31AM 32.3811 -88.7017 167° South 434 499 36,900 -1,920 Descending Memphis Center
09:32AM 32.2678 -88.6669 165° South 429 494 34,700 -2,340 Descending Memphis Center
09:33AM 32.1528 -88.6372 168° South 429 494 32,300 -2,460 Descending Memphis Center
09:34AM 32.0394 -88.6053 167° South 429 494 29,800 -2,520 Descending Memphis Center
09:37AM 31.7533 -88.5278 167° South 432 497 23,800 -2,460 Descending Houston Center
09:38AM 31.6389 -88.4972 167° South 427 491 21,400 -2,400 Descending Houston Center
09:39AM 31.5297 -88.4678 167° South 410 472 18,900 -2,340 Descending Houston Center
09:40AM 31.4228 -88.4406 168° South 401 461 16,700 -2,280 Descending Houston Center
09:41AM 31.3239 -88.4136 167° South 384 442 14,300 -2,640 Descending Houston Center
09:42AM 31.2128 -88.3836 167° South 359 413 11,300 -2,640 Descending Houston Center
09:43AM 31.1233 -88.3769 176° South 337 388 9,000 -2,160 Descending Houston Center
09:44AM 31.0442 -88.3697 176° South 309 356 6,900 -1,980 Descending Houston Center
09:45AM 30.9733 -88.3614 174° South 279 321 5,000 -1,860 Descending Houston Center
09:46AM 30.9047 -88.3442 168° South 264 304 3,100 -1,560 Descending Houston Center
09:47AM 30.8269 -88.3283 170° South 248 285 1,800 -840 Descending Houston Center
09:48AM 30.7792 -88.3172 169° South 203 234 1,400 -300 Descending Houston Center
09:49AM 30.7422 -88.2869 145° Southeast 176 203 1,200 -480 Descending Houston Center
09:50AM 30.7125 -88.2625 145° Southeast 149 171 500 -420 Descending Houston Center
09:51AM 30.6842 -88.2386 144° Southeast 145 167 400 -120 Descending Houston Center
09:53AM 30.6833 -88.2333 North  Level FlightAware Approximate